Time;durP1;ratioP1;P1;durP2;ratioP2;P2;SDS_P1;SDS_P2;PMS_P1;PMS_P2;Temp;Humidity;BMP_temperature;BMP_pressure;BME280_temperature;BME280_humidity;BME280_pressure;Samples;Min_cycle;Max_cycle;Signal;HPM_P1;HPM_P2
2022/09/01 00:01:41;;;;;;;5.35;2.85;;;15.40;99.90;;;;;;5014743;28;20103;-72
2022/09/01 00:04:08;;;;;;;2.83;1.98;;;16.20;99.90;;;;;;4996629;28;20038;-71
2022/09/01 00:06:35;;;;;;;5.88;2.17;;;15.40;99.90;;;;;;5013372;28;20038;-72
2022/09/01 00:09:03;;;;;;;4.10;1.88;;;15.90;99.90;;;;;;5014395;28;20419;-71
2022/09/01 00:11:30;;;;;;;4.65;2.83;;;15.30;99.90;;;;;;5013594;28;20042;-72
2022/09/01 00:13:56;;;;;;;6.75;3.45;;;15.40;99.90;;;;;;5012828;28;20041;-72
2022/09/01 00:16:23;;;;;;;7.68;3.30;;;16.60;99.90;;;;;;5013082;28;20124;-72
2022/09/01 00:18:52;;;;;;;7.35;3.42;;;15.50;99.90;;;;;;5012964;28;20046;-71
2022/09/01 00:21:20;;;;;;;9.18;2.75;;;15.20;99.90;;;;;;5013059;28;20068;-71
2022/09/01 00:23:46;;;;;;;3.10;2.10;;;15.30;99.90;;;;;;5012605;28;20093;-72
2022/09/01 00:26:12;;;;;;;3.65;2.38;;;15.20;99.90;;;;;;5012803;28;20128;-71
2022/09/01 00:28:38;;;;;;;3.67;2.28;;;15.40;99.90;;;;;;5012659;28;20108;-72
2022/09/01 00:31:06;;;;;;;4.78;2.50;;;15.30;99.90;;;;;;5012432;28;20044;-72
2022/09/01 00:33:33;;;;;;;5.07;2.13;;;15.40;99.90;;;;;;5012772;28;20514;-72
2022/09/01 00:35:58;;;;;;;8.93;2.13;;;15.40;99.90;;;;;;5013609;28;20084;-71
2022/09/01 00:38:25;;;;;;;3.50;2.08;;;15.80;99.90;;;;;;5012613;28;20045;-71
2022/09/01 00:40:51;;;;;;;3.03;2.03;;;15.20;99.90;;;;;;5012739;28;20045;-72
2022/09/01 00:43:37;;;;;;;4.15;1.88;;;15.10;99.90;;;;;;4996200;28;20065;-71
2022/09/01 00:46:09;;;;;;;3.55;1.80;;;15.30;99.90;;;;;;5012276;28;20092;-71
2022/09/01 00:48:36;;;;;;;2.47;1.98;;;15.40;99.90;;;;;;5013644;28;20042;-71
2022/09/01 00:51:02;;;;;;;2.58;2.00;;;15.30;99.90;;;;;;5012776;28;20431;-72
2022/09/01 00:53:28;;;;;;;5.18;2.30;;;15.30;99.90;;;;;;4995861;28;20072;-72
2022/09/01 00:55:54;;;;;;;3.35;2.13;;;15.30;99.90;;;;;;5013314;28;20042;-72
2022/09/01 00:58:20;;;;;;;4.32;2.45;;;15.40;99.90;;;;;;5012651;28;20038;-72
2022/09/01 01:00:48;;;;;;;4.57;2.20;;;14.90;99.90;;;;;;5013177;28;20116;-73
2022/09/01 01:03:14;;;;;;;4.72;2.85;;;15.10;99.90;;;;;;5012206;28;20581;-71
2022/09/01 01:05:47;;;;;;;5.25;1.95;;;15.10;99.90;;;;;;5012924;28;20658;-71
2022/09/01 01:08:13;;;;;;;3.95;2.00;;;15.00;99.90;;;;;;5012305;28;20384;-72
2022/09/01 01:10:40;;;;;;;4.10;1.58;;;15.10;99.90;;;;;;5011738;28;20065;-72
2022/09/01 01:13:12;;;;;;;3.75;1.95;;;14.80;99.90;;;;;;5013191;28;20045;-71
2022/09/01 01:15:42;;;;;;;5.15;1.63;;;15.10;99.90;;;;;;5011495;28;20053;-72
2022/09/01 01:18:13;;;;;;;3.45;2.10;;;16.20;99.90;;;;;;5012068;28;20042;-72
2022/09/01 01:23:41;;;;;;;4.28;2.17;;;15.10;99.90;;;;;;5013076;28;20050;-72
2022/09/01 01:26:09;;;;;;;2.63;1.60;;;14.90;99.90;;;;;;4995265;28;20042;-71
2022/09/01 01:28:38;;;;;;;2.45;1.70;;;15.30;99.90;;;;;;5011418;28;20635;-71
2022/09/01 01:31:13;;;;;;;3.83;1.70;;;14.90;99.90;;;;;;5011206;28;20034;-71
2022/09/01 01:33:45;;;;;;;2.33;1.38;;;14.90;99.90;;;;;;5011606;28;20095;-72
2022/09/01 01:36:15;;;;;;;2.70;1.80;;;14.80;99.90;;;;;;4995286;28;20056;-71
2022/09/01 01:38:45;;;;;;;3.45;1.90;;;14.90;99.90;;;;;;5011411;28;20041;-71
2022/09/01 01:41:12;;;;;;;3.30;1.92;;;14.90;99.90;;;;;;5011308;28;20449;-72
2022/09/01 01:43:39;;;;;;;2.28;1.80;;;14.70;99.90;;;;;;5011535;28;20507;-72
2022/09/01 01:46:08;;;;;;;3.58;1.92;;;15.00;99.90;;;;;;5011269;28;20144;-72
2022/09/01 01:48:38;;;;;;;2.97;1.67;;;14.70;99.90;;;;;;4994817;28;20038;-72
2022/09/01 01:51:04;;;;;;;2.53;1.60;;;14.90;99.90;;;;;;5011085;28;20038;-72
2022/09/01 01:53:31;;;;;;;4.65;2.72;;;14.80;99.90;;;;;;5011431;28;20439;-71
2022/09/01 01:55:59;;;;;;;2.35;1.50;;;15.10;99.90;;;;;;5011114;28;20461;-72
2022/09/01 01:58:27;;;;;;;7.22;1.92;;;14.70;99.90;;;;;;5012489;28;20092;-73
2022/09/01 02:00:55;;;;;;;2.38;1.60;;;14.70;99.90;;;;;;5010994;28;20129;-73
2022/09/01 02:03:25;;;;;;;2.67;1.88;;;14.80;99.90;;;;;;5011103;28;20049;-72
2022/09/01 02:05:53;;;;;;;2.55;1.58;;;14.70;99.90;;;;;;5010588;28;20041;-72
2022/09/01 02:08:21;;;;;;;3.28;1.30;;;14.80;99.90;;;;;;5010932;28;20084;-71
2022/09/01 02:10:50;;;;;;;3.30;1.77;;;15.10;99.90;;;;;;5010348;28;20564;-72
2022/09/01 02:13:19;;;;;;;3.28;1.38;;;14.70;99.90;;;;;;5010867;28;20033;-72
2022/09/01 02:15:52;;;;;;;3.08;2.00;;;14.70;99.90;;;;;;5010458;28;20074;-71
2022/09/01 02:18:19;;;;;;;2.40;1.35;;;14.70;99.90;;;;;;4994679;28;20092;-72
2022/09/01 02:20:48;;;;;;;1.90;1.55;;;14.60;99.90;;;;;;5010703;28;20048;-72
2022/09/01 02:23:16;;;;;;;3.15;1.50;;;14.70;99.90;;;;;;5011998;28;20054;-72
2022/09/01 02:25:44;;;;;;;3.88;1.85;;;14.80;99.90;;;;;;5010191;28;20045;-72
2022/09/01 02:28:14;;;;;;;5.22;3.28;;;14.50;99.90;;;;;;5010593;28;20042;-72
2022/09/01 02:30:45;;;;;;;4.93;2.55;;;14.50;99.90;;;;;;5018992;22;20042;-72
2022/09/01 02:33:17;;;;;;;3.13;2.00;;;14.50;99.90;;;;;;5010426;28;20046;-73
2022/09/01 02:35:49;;;;;;;2.67;2.25;;;14.40;99.90;;;;;;4993854;28;20049;-73
2022/09/01 02:38:16;;;;;;;3.50;1.83;;;14.50;99.90;;;;;;5012214;28;20030;-73
2022/09/01 02:40:44;;;;;;;2.20;1.73;;;14.50;99.90;;;;;;5011975;28;20046;-73
2022/09/01 02:43:10;;;;;;;2.45;1.88;;;14.60;99.90;;;;;;4994579;28;20434;-73
2022/09/01 02:45:37;;;;;;;2.15;1.75;;;14.30;99.90;;;;;;4994062;28;20042;-73
2022/09/01 02:48:09;;;;;;;2.33;1.90;;;14.50;99.90;;;;;;5010736;28;20088;-73
2022/09/01 02:50:40;;;;;;;2.17;1.40;;;14.40;99.90;;;;;;5010790;28;20044;-73
2022/09/01 02:53:08;;;;;;;2.95;1.58;;;14.50;99.90;;;;;;5010806;28;20113;-73
2022/09/01 02:55:41;;;;;;;4.30;1.63;;;14.50;99.90;;;;;;5010367;28;20029;-73
2022/09/01 02:58:15;;;;;;;2.03;1.23;;;14.10;99.90;;;;;;5010439;28;20038;-73
2022/09/01 03:00:44;;;;;;;4.22;2.10;;;14.50;99.90;;;;;;5010485;28;20038;-73
2022/09/01 03:03:11;;;;;;;5.13;2.40;;;14.50;99.90;;;;;;5010597;28;20108;-73
2022/09/01 03:05:38;;;;;;;4.18;2.90;;;14.40;99.90;;;;;;5010302;28;20455;-73
2022/09/01 03:08:09;;;;;;;4.38;2.67;;;14.50;99.90;;;;;;5010430;28;20046;-73
2022/09/01 03:10:41;;;;;;;3.85;2.30;;;14.40;99.90;;;;;;5011738;28;20045;-73
2022/09/01 03:13:16;;;;;;;4.43;2.38;;;14.40;99.90;;;;;;4994158;28;20396;-73
2022/09/01 03:15:42;;;;;;;5.32;2.03;;;14.40;99.90;;;;;;5010358;28;20496;-73
2022/09/01 03:18:10;;;;;;;3.42;2.50;;;14.40;99.90;;;;;;5010325;28;20044;-73
2022/09/01 03:20:38;;;;;;;2.38;2.10;;;14.80;99.90;;;;;;5020680;28;20102;-73
2022/09/01 03:23:07;;;;;;;2.55;1.92;;;14.40;99.90;;;;;;5029169;28;20077;-73
2022/09/01 03:25:35;;;;;;;2.83;2.50;;;14.40;99.90;;;;;;5031501;28;20046;-73
2022/09/01 03:28:02;;;;;;;3.88;2.67;;;14.40;99.90;;;;;;4999220;28;20077;-73
2022/09/01 03:30:30;;;;;;;5.00;3.83;;;14.40;99.90;;;;;;4998348;28;20087;-73
2022/09/01 03:32:57;;;;;;;6.03;3.00;;;14.30;99.90;;;;;;5014004;28;20038;-73
2022/09/01 03:35:24;;;;;;;5.07;2.50;;;14.30;99.90;;;;;;5013610;28;20072;-73
2022/09/01 03:37:49;;;;;;;4.22;2.58;;;14.90;99.90;;;;;;4997656;28;20033;-73
2022/09/01 03:40:17;;;;;;;3.10;2.65;;;14.30;99.90;;;;;;5014006;28;20176;-73
2022/09/01 03:42:43;;;;;;;4.75;2.70;;;14.20;99.90;;;;;;5013811;28;20056;-73
2022/09/01 03:45:11;;;;;;;5.07;2.03;;;14.30;99.90;;;;;;5013510;28;20049;-73
2022/09/01 03:47:39;;;;;;;3.92;2.40;;;14.30;99.90;;;;;;4997063;28;20046;-73
2022/09/01 03:50:11;;;;;;;4.10;2.50;;;14.30;99.90;;;;;;5013895;28;20135;-73
2022/09/01 03:52:39;;;;;;;2.80;2.50;;;14.30;99.90;;;;;;5014977;28;20116;-73
2022/09/01 03:55:06;;;;;;;4.15;2.33;;;14.10;99.90;;;;;;5013513;28;20099;-73
2022/09/01 03:57:32;;;;;;;2.92;1.90;;;14.00;99.90;;;;;;5013673;28;20034;-73
2022/09/01 03:59:58;;;;;;;4.43;2.15;;;14.20;99.90;;;;;;5013474;28;20042;-73
2022/09/01 04:02:28;;;;;;;3.38;2.47;;;14.20;99.90;;;;;;5013504;28;20073;-73
2022/09/01 04:04:54;;;;;;;3.47;2.50;;;14.90;99.90;;;;;;5014552;28;20124;-73
2022/09/01 04:07:19;;;;;;;3.20;2.15;;;14.20;99.90;;;;;;4997124;28;20164;-73
2022/09/01 04:09:45;;;;;;;4.45;2.30;;;14.40;99.90;;;;;;5013356;28;20034;-73
2022/09/01 04:12:14;;;;;;;4.47;2.33;;;14.30;99.90;;;;;;5014576;28;20118;-73
2022/09/01 04:14:40;;;;;;;2.33;1.90;;;14.10;99.90;;;;;;5012999;28;20172;-73
2022/09/01 04:19:50;;;;;;;4.43;2.15;;;14.10;99.90;;;;;;5013170;28;20080;-73
2022/09/01 04:22:16;;;;;;;4.85;2.55;;;14.00;99.90;;;;;;5013117;28;20419;-73
2022/09/01 04:24:44;;;;;;;4.65;2.65;;;13.90;99.90;;;;;;5012765;28;20045;-73
2022/09/01 04:27:10;;;;;;;4.00;1.98;;;14.10;99.90;;;;;;5014286;28;20052;-73
2022/09/01 04:29:37;;;;;;;3.70;2.50;;;14.10;99.90;;;;;;5012850;28;20034;-73
2022/09/01 04:32:11;;;;;;;2.65;2.00;;;14.30;99.90;;;;;;5012927;28;20050;-73
2022/09/01 04:34:38;;;;;;;;;;;13.90;99.90;;;;;;5014198;28;20073;-73
2022/09/01 04:37:09;;;;;;;4.88;2.33;;;14.00;99.90;;;;;;5014338;28;19928;-73
2022/09/01 04:39:35;;;;;;;2.65;2.13;;;13.90;99.90;;;;;;5012964;28;20495;-73
2022/09/01 04:42:03;;;;;;;4.57;2.20;;;14.60;99.90;;;;;;5014255;28;20410;-73
2022/09/01 04:44:29;;;;;;;3.58;2.17;;;14.00;99.90;;;;;;5014001;28;20038;-73
2022/09/01 04:46:55;;;;;;;2.85;1.70;;;14.00;99.90;;;;;;5012959;28;20117;-73
2022/09/01 04:49:22;;;;;;;4.15;2.40;;;14.30;99.90;;;;;;5012753;28;20559;-73
2022/09/01 04:51:50;;;;;;;4.75;2.28;;;13.90;99.90;;;;;;5012596;28;20550;-73
2022/09/01 04:54:16;;;;;;;3.85;2.20;;;13.90;99.90;;;;;;5012936;28;20417;-73
2022/09/01 04:56:43;;;;;;;2.90;2.10;;;13.80;99.90;;;;;;5014653;28;20030;-73
2022/09/01 04:59:10;;;;;;;3.17;1.70;;;14.20;99.90;;;;;;5012851;28;20522;-73
2022/09/01 05:01:43;;;;;;;3.50;2.40;;;14.00;99.90;;;;;;5013918;28;20053;-73
2022/09/01 05:04:11;;;;;;;;;;;14.00;99.90;;;;;;5013929;28;20041;-73
2022/09/01 05:06:41;;;;;;;3.90;1.98;;;14.00;99.90;;;;;;4996125;28;19917;-73
2022/09/01 05:09:08;;;;;;;3.10;2.67;;;13.90;99.90;;;;;;5012384;28;20419;-73
2022/09/01 05:11:36;;;;;;;7.65;4.40;;;14.10;99.90;;;;;;5012556;28;20065;-73
2022/09/01 05:14:04;;;;;;;5.03;3.20;;;13.90;99.90;;;;;;5012495;28;20038;-73
2022/09/01 05:16:30;;;;;;;4.50;3.10;;;14.00;99.90;;;;;;4996252;28;20408;-73
2022/09/01 05:18:56;;;;;;;4.90;3.00;;;13.90;99.90;;;;;;5013449;28;20125;-73
2022/09/01 05:21:27;;;;;;;4.75;2.65;;;14.60;99.90;;;;;;5028447;28;20065;-73
2022/09/01 05:23:53;;;;;;;2.95;2.60;;;14.00;99.90;;;;;;5012197;28;20042;-72
2022/09/01 05:26:27;;;;;;;8.07;2.70;;;14.00;99.90;;;;;;5012185;28;20129;-73
2022/09/01 05:28:55;;;;;;;4.32;2.30;;;13.90;99.90;;;;;;4995657;28;20057;-73
2022/09/01 05:31:23;;;;;;;6.20;2.05;;;13.90;99.90;;;;;;5011720;28;20067;-73
2022/09/01 05:33:49;;;;;;;4.47;2.63;;;13.70;99.90;;;;;;5011929;28;20037;-73
2022/09/01 05:36:20;;;;;;;3.63;2.42;;;13.90;99.90;;;;;;5011738;28;20038;-73
2022/09/01 05:38:46;;;;;;;5.05;2.40;;;13.80;99.90;;;;;;5011807;28;20034;-73
2022/09/01 05:41:14;;;;;;;6.13;2.60;;;14.10;99.90;;;;;;5011763;28;20042;-73
2022/09/01 05:43:47;;;;;;;4.78;2.17;;;14.80;99.90;;;;;;5011687;28;20583;-73
2022/09/01 05:46:15;;;;;;;3.80;2.10;;;15.00;99.90;;;;;;5010851;28;20064;-73
2022/09/01 05:48:42;;;;;;;3.60;3.08;;;14.20;99.90;;;;;;5013065;28;20515;-73
2022/09/01 05:51:10;;;;;;;4.40;2.78;;;14.80;99.90;;;;;;5013155;28;20042;-73
2022/09/01 05:53:36;;;;;;;3.25;2.17;;;14.10;99.90;;;;;;5013060;28;20499;-73
2022/09/01 05:56:06;;;;;;;3.85;2.30;;;14.00;99.90;;;;;;5011360;28;20030;-73
2022/09/01 05:58:33;;;;;;;4.47;2.72;;;14.40;99.90;;;;;;5012558;28;20033;-73
2022/09/01 06:00:59;;;;;;;5.57;2.50;;;14.20;99.90;;;;;;5012597;28;20802;-73
2022/09/01 06:03:26;;;;;;;4.43;2.60;;;14.50;99.90;;;;;;5011856;28;20034;-73
2022/09/01 06:05:54;;;;;;;3.30;1.92;;;14.60;99.90;;;;;;5011278;28;20057;-74
2022/09/01 06:08:23;;;;;;;3.33;2.05;;;14.90;99.90;;;;;;5011522;28;20038;-73
2022/09/01 06:10:51;;;;;;;5.97;2.28;;;14.70;99.90;;;;;;5015559;28;20030;-73
2022/09/01 06:13:20;;;;;;;2.80;2.25;;;14.70;99.90;;;;;;5008188;28;20065;-73
2022/09/01 06:15:49;;;;;;;4.35;1.98;;;14.70;99.90;;;;;;5007540;28;20045;-73
2022/09/01 06:18:16;;;;;;;3.30;1.75;;;14.60;99.90;;;;;;5005016;28;20096;-74
2022/09/01 06:20:45;;;;;;;4.15;2.10;;;14.70;99.90;;;;;;5008728;28;20503;-72
2022/09/01 06:23:13;;;;;;;4.93;2.15;;;15.00;99.90;;;;;;5003064;28;20129;-73
2022/09/01 06:25:48;;;;;;;3.00;1.90;;;15.40;99.90;;;;;;5007168;28;20093;-73
2022/09/01 06:28:15;;;;;;;5.22;2.20;;;15.00;99.90;;;;;;5004937;28;20042;-73
2022/09/01 06:30:43;;;;;;;3.85;2.00;;;14.90;99.90;;;;;;5009696;28;20408;-73
2022/09/01 06:33:09;;;;;;;6.07;2.78;;;15.20;99.90;;;;;;5009550;28;20042;-73
2022/09/01 06:35:37;;;;;;;3.05;2.00;;;15.30;99.90;;;;;;5019051;28;20029;-72
2022/09/01 06:38:04;;;;;;;5.97;2.65;;;15.30;99.90;;;;;;4992016;28;20042;-72
2022/09/01 06:40:31;;;;;;;4.78;2.63;;;15.50;99.90;;;;;;5007290;28;20052;-73
2022/09/01 06:42:58;;;;;;;21.05;4.38;;;15.40;99.90;;;;;;5012101;28;20045;-74
2022/09/01 06:45:24;;;;;;;3.22;2.65;;;15.50;99.90;;;;;;5010663;28;20041;-73
2022/09/01 06:47:51;;;;;;;5.10;3.00;;;15.30;99.90;;;;;;4994368;28;20120;-74
2022/09/01 06:50:21;;;;;;;3.45;2.20;;;15.60;99.90;;;;;;5000411;28;20124;-72
2022/09/01 06:53:00;;;;;;;11.93;2.70;;;15.60;99.90;;;;;;5004742;28;20061;-73
2022/09/01 06:55:30;;;;;;;9.52;1.80;;;15.70;99.90;;;;;;5009798;28;20152;-73
2022/09/01 06:57:56;;;;;;;2.33;1.90;;;15.80;99.90;;;;;;5014778;28;20096;-73
2022/09/01 07:00:22;;;;;;;3.08;2.00;;;15.80;99.90;;;;;;5010106;28;20409;-73
2022/09/01 07:02:54;;;;;;;4.43;2.20;;;16.50;99.90;;;;;;5025816;28;20049;-74
2022/09/01 07:05:20;;;;;;;1.90;1.70;;;16.20;99.90;;;;;;5028786;28;20042;-74
2022/09/01 07:07:53;;;;;;;4.88;1.80;;;16.30;99.90;;;;;;5017120;28;20052;-73
2022/09/01 07:10:21;;;;;;;5.55;2.10;;;16.10;99.90;;;;;;5009622;28;20121;-73
2022/09/01 07:12:58;;;;;;;3.42;1.80;;;16.10;99.90;;;;;;5010353;28;20085;-73
2022/09/01 07:15:24;;;;;;;3.72;2.08;;;16.40;99.90;;;;;;5010429;28;20046;-73
2022/09/01 07:17:54;;;;;;;4.28;2.80;;;16.40;99.90;;;;;;5009468;28;20073;-73
2022/09/01 07:20:23;;;;;;;4.72;1.92;;;16.30;99.90;;;;;;5010062;28;20042;-74
2022/09/01 07:22:50;;;;;;;2.33;1.77;;;16.40;99.90;;;;;;5008876;28;20045;-74
2022/09/01 07:25:17;;;;;;;2.63;1.70;;;16.40;99.90;;;;;;5009777;28;20045;-74
2022/09/01 07:27:49;;;;;;;4.68;2.00;;;16.80;99.90;;;;;;5010179;28;20041;-73
2022/09/01 07:30:17;;;;;;;2.50;1.80;;;17.20;99.90;;;;;;5009236;28;20091;-73
2022/09/01 07:32:44;;;;;;;4.18;2.05;;;16.50;99.90;;;;;;5008631;28;20034;-73
2022/09/01 07:35:11;;;;;;;5.10;2.58;;;16.90;99.90;;;;;;5010381;28;20124;-74
2022/09/01 07:37:37;;;;;;;4.03;1.60;;;17.10;99.90;;;;;;5010968;28;20046;-73
2022/09/01 07:40:11;;;;;;;3.35;1.60;;;17.80;99.90;;;;;;5009314;28;20407;-74
2022/09/01 07:42:39;;;;;;;3.55;1.30;;;17.40;99.90;;;;;;5009581;28;20053;-73
2022/09/01 07:45:09;;;;;;;4.32;1.45;;;17.40;99.90;;;;;;5010252;28;20075;-73
2022/09/01 07:47:36;;;;;;;5.57;2.47;;;17.50;99.90;;;;;;5009949;28;20046;-73
2022/09/01 07:50:07;;;;;;;3.28;1.20;;;17.50;99.90;;;;;;5010307;28;20060;-73
2022/09/01 07:52:41;;;;;;;2.10;1.85;;;17.40;99.90;;;;;;5009079;28;20543;-73
2022/09/01 07:55:10;;;;;;;2.35;1.20;;;17.80;99.90;;;;;;5008455;28;20080;-73
2022/09/01 07:57:36;;;;;;;2.40;1.77;;;17.90;99.90;;;;;;5008967;28;20038;-73
2022/09/01 08:00:05;;;;;;;3.58;1.65;;;18.30;99.90;;;;;;5008689;28;20042;-73
2022/09/01 08:02:31;;;;;;;2.67;1.60;;;18.40;99.90;;;;;;5010020;28;20515;-73
2022/09/01 08:04:59;;;;;;;3.50;1.40;;;18.70;99.90;;;;;;5009124;28;20311;-73
2022/09/01 08:07:25;;;;;;;3.45;1.77;;;18.60;99.90;;;;;;5010015;28;20077;-73
2022/09/01 08:09:50;;;;;;;3.33;1.80;;;18.80;99.90;;;;;;5013576;28;20085;-72
2022/09/01 08:12:16;;;;;;;3.30;1.65;;;18.40;99.90;;;;;;5013340;28;20034;-73
2022/09/01 08:14:41;;;;;;;3.53;1.80;;;19.10;99.90;;;;;;5012335;28;20037;-73
2022/09/01 08:17:07;;;;;;;5.35;1.98;;;18.60;99.90;;;;;;5014725;28;20088;-73
2022/09/01 08:19:33;;;;;;;1.90;1.35;;;18.90;99.90;;;;;;5013474;28;20034;-73
2022/09/01 08:22:00;;;;;;;5.07;1.50;;;19.00;99.90;;;;;;5013876;28;20045;-73
2022/09/01 08:24:25;;;;;;;3.70;2.63;;;19.00;99.90;;;;;;5011905;28;20049;-73
2022/09/01 08:26:51;;;;;;;5.28;2.25;;;20.40;99.90;;;;;;5012111;28;20042;-73
2022/09/01 08:29:16;;;;;;;2.97;1.73;;;19.00;99.90;;;;;;5010797;28;20061;-73
2022/09/01 08:31:42;;;;;;;1.50;1.30;;;19.10;99.90;;;;;;5039748;22;20154;-72
2022/09/01 08:34:11;;;;;;;4.72;1.40;;;20.00;99.90;;;;;;5024538;28;20045;-72
2022/09/01 08:36:37;;;;;;;3.35;1.58;;;19.50;99.90;;;;;;5031454;28;20033;-72
2022/09/01 08:39:02;;;;;;;5.07;1.70;;;19.80;99.90;;;;;;5031847;28;20102;-72
2022/09/01 08:41:57;;;;;;;3.33;1.70;;;19.60;99.90;;;;;;5030697;28;20044;-72
2022/09/01 08:44:44;;;;;;;4.15;2.28;;;20.60;99.90;;;;;;5027243;28;20040;-73
2022/09/01 08:47:13;;;;;;;2.75;1.80;;;20.00;99.90;;;;;;5011490;28;20053;-73
2022/09/01 08:49:39;;;;;;;3.78;1.48;;;19.90;99.90;;;;;;5012909;28;20109;-72
2022/09/01 08:52:05;;;;;;;3.80;1.50;;;20.00;99.90;;;;;;5030187;28;20033;-72
2022/09/01 08:54:58;;;;;;;2.83;1.80;;;20.50;99.90;;;;;;5030872;28;20043;-73
2022/09/01 08:57:34;;;;;;;3.25;1.98;;;20.20;99.90;;;;;;5025026;28;20436;-72
2022/09/01 09:00:00;;;;;;;4.10;1.50;;;21.20;99.90;;;;;;5012520;28;20187;-73
2022/09/01 09:02:46;;;;;;;2.75;1.50;;;20.40;99.90;;;;;;5027955;28;20038;-72
2022/09/01 09:05:54;;;;;;;1.27;1.10;;;20.00;99.90;;;;;;5006396;28;20041;-73
2022/09/01 09:08:28;;;;;;;4.10;1.30;;;20.30;99.90;;;;;;5022742;28;20045;-73
2022/09/01 09:10:59;;;;;;;2.75;1.10;;;20.40;99.90;;;;;;5005312;28;20095;-73
2022/09/01 09:13:58;;;;;;;1.50;0.90;;;21.60;99.90;;;;;;5031273;28;20136;-72
2022/09/01 09:16:33;;;;;;;1.95;1.20;;;20.60;99.90;;;;;;5018494;28;20045;-74
2022/09/01 09:19:32;;;;;;;3.03;1.20;;;20.70;99.90;;;;;;5010608;28;20057;-73
2022/09/01 09:22:02;;;;;;;3.20;1.25;;;20.80;99.90;;;;;;5024415;28;20744;-73
2022/09/01 09:24:28;;;;;;;3.58;0.90;;;21.00;99.90;;;;;;5030638;28;20041;-73
2022/09/01 09:26:57;;;;;;;2.95;0.90;;;20.70;99.90;;;;;;4998117;28;20129;-72
2022/09/01 09:29:25;;;;;;;3.17;1.10;;;21.20;99.90;;;;;;5027466;28;20116;-73
2022/09/01 09:32:08;;;;;;;4.15;1.25;;;21.70;99.90;;;;;;5027380;28;20045;-72
2022/09/01 09:34:37;;;;;;;2.50;1.02;;;21.00;99.90;;;;;;5028609;28;20487;-72
2022/09/01 09:37:20;;;;;;;1.63;0.82;;;;;;;;;;5013194;28;20119;-73
2022/09/01 09:40:01;;;;;;;4.97;1.13;;;;;;;;;;5010288;28;20038;-72
2022/09/01 09:42:27;;;;;;;4.05;0.80;;;;;;;;;;5011505;28;20118;-72
2022/09/01 09:44:54;;;;;;;2.55;1.23;;;21.80;98.80;;;;;;5010689;28;20089;-72
2022/09/01 09:47:45;;;;;;;2.30;0.85;;;21.60;98.90;;;;;;5027702;28;20140;-72
2022/09/01 09:50:31;;;;;;;3.92;1.48;;;22.50;99.10;;;;;;5010929;28;20037;-72
2022/09/01 09:53:26;;;;;;;1.65;1.05;;;21.30;98.40;;;;;;5010409;28;20529;-73
2022/09/01 09:56:18;;;;;;;2.28;0.80;;;21.70;98.20;;;;;;5028538;28;20084;-72
2022/09/01 09:58:46;;;;;;;1.02;0.80;;;22.10;98.00;;;;;;5030505;28;20363;-73
2022/09/01 10:01:21;;;;;;;2.65;0.80;;;22.00;97.70;;;;;;5030412;28;20170;-73
2022/09/01 10:03:58;;;;;;;8.55;1.20;;;22.10;97.60;;;;;;5023985;28;20038;-73
2022/09/01 10:06:31;;;;;;;1.67;0.80;;;22.20;97.80;;;;;;5012054;28;20057;-73
2022/09/01 10:08:58;;;;;;;2.85;1.23;;;22.20;97.70;;;;;;5010161;28;20042;-73
2022/09/01 10:11:39;;;;;;;2.58;0.93;;;23.00;97.80;;;;;;5010741;28;20148;-73
2022/09/01 10:14:13;;;;;;;1.45;0.70;;;22.30;96.90;;;;;;5008696;28;20610;-73
2022/09/01 10:16:41;;;;;;;2.15;0.65;;;22.40;97.80;;;;;;5021683;28;20175;-73
2022/09/01 10:19:11;;;;;;;1.15;1.00;;;22.70;97.40;;;;;;5031281;28;20033;-73
2022/09/01 10:21:39;;;;;;;0.93;0.80;;;22.80;97.20;;;;;;5029544;28;20517;-73
2022/09/01 10:24:16;;;;;;;1.75;1.10;;;23.50;96.50;;;;;;5011727;28;20457;-73
2022/09/01 10:26:46;;;;;;;3.47;0.98;;;22.40;95.40;;;;;;5010349;28;20419;-73
2022/09/01 10:29:20;;;;;;;4.82;0.85;;;22.90;96.10;;;;;;5011122;28;20141;-73
2022/09/01 10:31:46;;;;;;;3.45;0.82;;;22.90;95.40;;;;;;5009532;28;20112;-73
2022/09/01 10:34:16;;;;;;;4.35;0.85;;;23.30;96.00;;;;;;5026932;28;20582;-73
2022/09/01 10:36:44;;;;;;;0.80;0.55;;;23.20;95.30;;;;;;5028583;28;20117;-73
2022/09/01 10:39:15;;;;;;;1.13;0.60;;;22.70;95.50;;;;;;5030862;28;20037;-73
2022/09/01 10:41:53;;;;;;;1.75;0.80;;;22.90;95.10;;;;;;5007896;28;20117;-73
2022/09/01 10:44:20;;;;;;;2.00;0.52;;;23.60;95.90;;;;;;5010685;28;20045;-73
2022/09/01 10:46:47;;;;;;;2.88;0.63;;;23.10;95.20;;;;;;4992779;28;20100;-73
2022/09/01 10:49:20;;;;;;;0.90;0.50;;;24.40;95.20;;;;;;5009615;28;20050;-73
2022/09/01 10:51:46;;;;;;;2.35;0.57;;;23.50;93.80;;;;;;5010714;28;20057;-74
2022/09/01 10:54:51;;;;;;;1.38;0.50;;;23.90;94.40;;;;;;5010591;28;20034;-73
2022/09/01 10:57:39;;;;;;;1.30;0.70;;;25.00;94.20;;;;;;4967039;28;20515;-74
2022/09/01 11:00:44;;;;;;;1.65;0.70;;;23.70;94.00;;;;;;5027805;28;20476;-74
2022/09/01 11:03:13;;;;;;;1.30;0.70;;;23.40;92.90;;;;;;5028605;28;20038;-73
2022/09/01 11:06:00;;;;;;;1.17;0.77;;;21.00;93.00;;;;;;5029017;28;20049;-74
2022/09/01 11:08:26;;;;;;;1.15;0.93;;;23.00;93.30;;;;;;5010527;28;20042;-73
2022/09/01 11:11:20;;;;;;;0.75;0.52;;;22.60;93.90;;;;;;5009329;28;20045;-74
2022/09/01 11:13:53;;;;;;;1.10;0.57;;;22.40;93.90;;;;;;5002021;28;20046;-72
2022/09/01 11:16:42;;;;;;;1.58;0.90;;;25.10;94.80;;;;;;5011361;28;20034;-72
2022/09/01 11:19:29;;;;;;;1.98;0.85;;;23.20;94.10;;;;;;5020663;28;20040;-73
2022/09/01 11:22:13;;;;;;;2.38;0.70;;;23.30;94.30;;;;;;5008892;28;20053;-73
2022/09/01 11:24:38;;;;;;;0.90;0.60;;;23.30;93.80;;;;;;5009669;28;20042;-73
2022/09/01 11:27:07;;;;;;;1.20;0.88;;;24.70;94.70;;;;;;5028640;28;20130;-72
2022/09/01 11:29:52;;;;;;;2.55;0.80;;;23.90;94.10;;;;;;5029755;28;20446;-75
2022/09/01 11:32:23;;;;;;;6.72;0.75;;;23.60;94.40;;;;;;5026236;28;20357;-73
2022/09/01 11:34:51;;;;;;;1.45;0.68;;;23.40;94.40;;;;;;5035711;28;20411;-72
2022/09/01 11:37:20;;;;;;;1.65;0.50;;;23.20;94.30;;;;;;5027322;28;20041;-71
2022/09/01 11:39:53;;;;;;;2.80;0.70;;;23.00;94.30;;;;;;5032432;28;20060;-73
2022/09/01 11:42:38;;;;;;;1.05;0.60;;;22.90;94.20;;;;;;5024855;28;20634;-72
2022/09/01 11:45:17;;;;;;;1.48;0.90;;;23.40;94.60;;;;;;5017887;28;20045;-73
2022/09/01 11:47:48;;;;;;;2.50;0.82;;;23.50;94.60;;;;;;5012026;28;20543;-73
2022/09/01 11:50:31;;;;;;;1.58;0.90;;;23.00;94.60;;;;;;5011475;28;20069;-74
2022/09/01 11:53:03;;;;;;;2.15;0.80;;;22.90;94.50;;;;;;5008802;28;20033;-73
2022/09/01 11:55:32;;;;;;;;;;;22.90;93.80;;;;;;5033156;28;20037;-73
2022/09/01 11:57:58;;;;;;;7.45;1.50;;;23.30;93.70;;;;;;5016531;28;20397;-72
2022/09/01 12:00:30;;;;;;;1.23;0.40;;;23.90;94.10;;;;;;5023612;28;20048;-73
2022/09/01 12:02:55;;;;;;;1.35;0.70;;;23.40;93.50;;;;;;5014639;28;20480;-73
2022/09/01 12:05:30;;;;;;;3.58;0.80;;;23.40;94.00;;;;;;4995453;28;20126;-72
2022/09/01 12:07:57;;;;;;;2.65;0.82;;;23.20;94.00;;;;;;5022360;28;20075;-72
2022/09/01 12:10:26;;;;;;;1.00;0.88;;;23.00;94.00;;;;;;5033972;28;20077;-72
2022/09/01 12:13:08;;;;;;;0.90;0.70;;;23.10;94.20;;;;;;5032123;28;20077;-72
2022/09/01 12:15:37;;;;;;;1.38;0.65;;;23.20;93.10;;;;;;5031645;28;20064;-72
2022/09/01 12:18:17;;;;;;;5.07;0.90;;;23.60;94.10;;;;;;5032853;28;20048;-72
2022/09/01 12:20:45;;;;;;;6.22;1.45;;;23.60;93.30;;;;;;5034181;28;20045;-72
2022/09/01 12:23:28;;;;;;;2.45;0.80;;;23.60;93.10;;;;;;5033911;28;20049;-72
2022/09/01 12:25:57;;;;;;;2.20;1.20;;;22.80;93.40;;;;;;5016107;28;20068;-73
2022/09/01 12:28:26;;;;;;;1.65;0.90;;;22.80;93.40;;;;;;5033845;28;20105;-72
2022/09/01 12:30:53;;;;;;;2.25;0.90;;;22.90;93.70;;;;;;5032706;28;20041;-72
2022/09/01 12:33:20;;;;;;;2.00;0.77;;;23.10;93.50;;;;;;5015898;28;20518;-73
2022/09/01 12:35:46;;;;;;;2.08;0.70;;;23.70;93.50;;;;;;5033959;28;20053;-72
2022/09/01 12:38:17;;;;;;;2.83;0.70;;;23.60;93.20;;;;;;5034301;28;20076;-72
2022/09/01 12:40:44;;;;;;;2.78;0.60;;;25.00;93.40;;;;;;5015632;28;20080;-73
2022/09/01 12:43:10;;;;;;;1.90;0.52;;;24.50;94.10;;;;;;5031891;28;20041;-73
2022/09/01 12:45:39;;;;;;;1.58;0.60;;;24.50;93.90;;;;;;5032214;28;20041;-72
2022/09/01 12:48:05;;;;;;;5.57;0.63;;;24.70;93.10;;;;;;5032514;28;20415;-73
2022/09/01 12:50:34;;;;;;;1.08;0.90;;;24.80;92.60;;;;;;5031782;28;20088;-72
2022/09/01 12:53:11;;;;;;;1.38;1.13;;;24.90;93.30;;;;;;5016181;28;20044;-72
2022/09/01 12:55:36;;;;;;;1.33;0.80;;;24.50;92.20;;;;;;5033711;28;20030;-72
2022/09/01 12:58:08;;;;;;;2.15;0.60;;;25.90;93.10;;;;;;5032593;28;20153;-73
2022/09/01 13:00:52;;;;;;;0.70;0.50;;;24.90;92.00;;;;;;5033293;28;20045;-74
2022/09/01 13:03:18;;;;;;;1.00;0.50;;;24.80;92.40;;;;;;5033383;28;20069;-72
2022/09/01 13:05:49;;;;;;;1.00;0.70;;;26.30;93.00;;;;;;5015287;28;20569;-72
2022/09/01 13:08:20;;;;;;;1.65;0.60;;;25.00;92.30;;;;;;5033239;28;20514;-73
2022/09/01 13:10:54;;;;;;;1.80;0.60;;;25.70;92.30;;;;;;5032951;28;20049;-72